Time;durP1;ratioP1;P1;durP2;ratioP2;P2;SDS_P1;SDS_P2;PMS_P1;PMS_P2;Temp;Humidity;BMP_temperature;BMP_pressure;BME280_temperature;BME280_humidity;BME280_pressure;Samples;Min_cycle;Max_cycle;Signal;HPM_P1;HPM_P2
2023/01/11 00:02:04;;;;;;;3.57;1.70;;;7.00;99.90;;;;;;5003702;28;20233;-80
2023/01/11 00:04:31;;;;;;;7.60;2.00;;;7.00;99.90;;;;;;5023382;28;20266;-80
2023/01/11 00:06:58;;;;;;;3.57;1.40;;;7.00;99.90;;;;;;5034874;28;20267;-80
2023/01/11 00:09:24;;;;;;;3.57;1.53;;;7.00;99.90;;;;;;5020353;28;20219;-81
2023/01/11 00:11:53;;;;;;;2.60;1.57;;;7.00;99.90;;;;;;5023629;28;20219;-80
2023/01/11 00:14:21;;;;;;;2.90;1.30;;;7.00;99.90;;;;;;5021694;28;20276;-80
2023/01/11 00:16:47;;;;;;;1.93;1.77;;;7.00;99.90;;;;;;5027086;28;20218;-81
2023/01/11 00:19:14;;;;;;;2.63;1.20;;;7.00;99.90;;;;;;5016207;28;20264;-81
2023/01/11 00:21:41;;;;;;;4.10;1.57;;;7.00;99.90;;;;;;5020593;28;20280;-82
2023/01/11 00:24:08;;;;;;;2.97;1.50;;;7.00;99.90;;;;;;5023833;28;20551;-80
2023/01/11 00:26:34;;;;;;;4.50;1.27;;;7.00;99.90;;;;;;5028689;28;20196;-81
2023/01/11 00:29:03;;;;;;;1.67;1.27;;;7.00;99.90;;;;;;5024049;28;20220;-80
2023/01/11 00:31:29;;;;;;;1.60;1.43;;;7.00;99.90;;;;;;5026675;28;20267;-80
2023/01/11 00:33:57;;;;;;;3.63;1.50;;;7.00;99.90;;;;;;5010090;28;20266;-82
2023/01/11 00:36:24;;;;;;;2.03;1.23;;;7.00;99.90;;;;;;5006635;28;20245;-80
2023/01/11 00:38:52;;;;;;;1.93;1.40;;;7.10;99.90;;;;;;5006037;28;20201;-81
2023/01/11 00:49:46;;;;;;;4.47;1.50;;;7.10;99.90;;;;;;5008623;28;20207;-80
2023/01/11 00:52:13;;;;;;;2.73;1.33;;;7.10;99.90;;;;;;5022535;28;20307;-80
2023/01/11 00:54:41;;;;;;;1.80;1.47;;;7.20;99.90;;;;;;5025188;28;20726;-81
2023/01/11 00:57:08;;;;;;;5.57;1.47;;;7.30;99.90;;;;;;5026022;28;20216;-80
2023/01/11 00:59:38;;;;;;;4.50;1.47;;;7.20;99.90;;;;;;5025194;28;20207;-80
2023/01/11 01:02:05;;;;;;;3.60;1.27;;;7.20;99.90;;;;;;5025185;28;20243;-80
2023/01/11 01:04:32;;;;;;;3.17;1.13;;;7.20;99.90;;;;;;5025698;28;20267;-80
2023/01/11 01:06:59;;;;;;;3.67;1.30;;;7.20;99.90;;;;;;5024850;28;20208;-81
2023/01/11 01:09:26;;;;;;;4.40;1.27;;;7.20;99.90;;;;;;5026375;28;20229;-81
2023/01/11 01:11:53;;;;;;;3.17;1.30;;;7.20;99.90;;;;;;5024521;28;20258;-81
2023/01/11 01:14:27;;;;;;;2.37;1.37;;;7.20;99.90;;;;;;5023005;28;20232;-81
2023/01/11 01:16:57;;;;;;;3.07;1.37;;;7.20;99.90;;;;;;5025057;28;20275;-81
2023/01/11 01:19:26;;;;;;;2.03;1.30;;;7.20;99.90;;;;;;5032622;28;20268;-81
2023/01/11 01:21:54;;;;;;;2.30;1.50;;;7.20;99.90;;;;;;5036902;28;20232;-80
2023/01/11 01:24:21;;;;;;;1.57;1.10;;;7.20;99.90;;;;;;5025410;28;20228;-81
2023/01/11 01:26:48;;;;;;;2.27;1.40;;;7.20;99.90;;;;;;5024188;28;20208;-81
2023/01/11 01:29:15;;;;;;;2.97;1.43;;;7.30;99.90;;;;;;5021895;28;20220;-80
2023/01/11 01:31:42;;;;;;;2.97;1.30;;;7.50;99.90;;;;;;5025138;28;20208;-80
2023/01/11 01:34:11;;;;;;;4.73;1.77;;;7.30;99.90;;;;;;5014965;28;20228;-80
2023/01/11 01:36:38;;;;;;;1.77;1.27;;;7.30;99.90;;;;;;5002908;28;20189;-81
2023/01/11 01:39:06;;;;;;;3.03;1.20;;;7.30;99.90;;;;;;5004790;28;20211;-80
2023/01/11 01:41:33;;;;;;;4.33;1.27;;;7.30;99.90;;;;;;5002929;28;20729;-80
2023/01/11 01:44:02;;;;;;;1.93;1.40;;;7.30;99.90;;;;;;5003598;28;20205;-81
2023/01/11 01:46:31;;;;;;;4.73;1.50;;;7.30;99.90;;;;;;5004789;28;20201;-81
2023/01/11 01:49:01;;;;;;;6.53;1.60;;;7.30;99.90;;;;;;5003709;28;20259;-81
2023/01/11 01:51:34;;;;;;;4.87;1.30;;;7.30;99.90;;;;;;5011434;28;20196;-81
2023/01/11 01:54:06;;;;;;;3.97;1.60;;;7.40;99.90;;;;;;5015040;28;20305;-80
2023/01/11 01:56:37;;;;;;;3.03;1.50;;;7.20;99.90;;;;;;5003543;28;20215;-81
2023/01/11 01:59:11;;;;;;;3.03;1.20;;;7.30;99.90;;;;;;5003234;28;20205;-80
2023/01/11 02:01:47;;;;;;;2.53;1.37;;;7.30;99.90;;;;;;5004034;28;20282;-80
2023/01/11 02:04:22;;;;;;;5.87;1.50;;;7.30;99.90;;;;;;5012647;28;20228;-81
2023/01/11 02:06:52;;;;;;;3.60;1.50;;;7.20;99.90;;;;;;5023039;28;20290;-81
2023/01/11 02:09:26;;;;;;;2.40;1.50;;;7.30;99.90;;;;;;5023620;28;20236;-81
2023/01/11 02:11:55;;;;;;;2.23;1.27;;;7.30;99.90;;;;;;5023030;28;20232;-80
2023/01/11 02:14:23;;;;;;;3.10;1.93;;;7.30;99.90;;;;;;5023720;28;20258;-81
2023/01/11 02:16:50;;;;;;;1.53;1.40;;;7.30;99.90;;;;;;5023429;28;20291;-80
2023/01/11 02:19:33;;;;;;;2.97;1.30;;;7.30;99.90;;;;;;5022617;28;20297;-80
2023/01/11 02:22:40;;;;;;;3.73;1.40;;;7.30;99.90;;;;;;5023330;28;20255;-81
2023/01/11 02:25:36;;;;;;;2.43;1.10;;;7.30;99.90;;;;;;5021841;28;20200;-81
2023/01/11 02:28:10;;;;;;;2.47;1.40;;;7.30;99.90;;;;;;5023171;28;20251;-81
2023/01/11 02:30:45;;;;;;;1.30;1.10;;;7.30;99.90;;;;;;5021675;28;20704;-80
2023/01/11 02:33:23;;;;;;;1.40;0.90;;;7.40;99.90;;;;;;5020306;28;20231;-81
2023/01/11 02:36:05;;;;;;;3.80;1.13;;;7.40;99.90;;;;;;5019772;28;20679;-82
2023/01/11 02:38:38;;;;;;;2.43;1.70;;;7.40;99.90;;;;;;5021176;28;20231;-80
2023/01/11 02:41:12;;;;;;;4.77;1.20;;;7.50;99.90;;;;;;5023254;28;20287;-80
2023/01/11 02:46:43;;;;;;;1.27;1.10;;;7.50;99.90;;;;;;5002277;28;20204;-80
2023/01/11 02:49:18;;;;;;;1.03;0.80;;;7.50;99.90;;;;;;5002141;28;20216;-81
2023/01/11 02:51:52;;;;;;;1.87;1.07;;;7.50;99.90;;;;;;5015677;28;20222;-79
2023/01/11 02:54:22;;;;;;;1.37;1.17;;;7.60;99.90;;;;;;5021389;28;20227;-81
2023/01/11 02:56:51;;;;;;;1.93;0.90;;;7.60;99.90;;;;;;5021735;28;20208;-81
2023/01/11 02:59:22;;;;;;;1.43;1.10;;;7.60;99.90;;;;;;5021798;28;20204;-80
2023/01/11 03:01:51;;;;;;;1.10;1.00;;;7.60;99.90;;;;;;5020799;28;20718;-80
2023/01/11 03:04:27;;;;;;;1.40;1.00;;;7.60;99.90;;;;;;5021506;28;20679;-81
2023/01/11 03:07:07;;;;;;;2.90;1.10;;;7.60;99.90;;;;;;5018973;28;20290;-82
2023/01/11 03:09:44;;;;;;;2.93;1.30;;;7.70;99.90;;;;;;5019930;28;20210;-80
2023/01/11 03:15:44;;;;;;;1.87;1.10;;;7.70;99.90;;;;;;5021615;28;20546;-80
2023/01/11 03:18:27;;;;;;;3.20;1.60;;;7.70;99.90;;;;;;5022644;28;20299;-81
2023/01/11 03:21:07;;;;;;;1.57;1.30;;;7.70;99.90;;;;;;5023645;28;20286;-80
2023/01/11 03:23:42;;;;;;;2.90;1.20;;;7.70;99.90;;;;;;5020488;28;20314;-80
2023/01/11 03:26:18;;;;;;;3.80;1.40;;;7.80;99.90;;;;;;5023007;28;20192;-80
2023/01/11 03:28:55;;;;;;;3.87;1.27;;;7.80;99.90;;;;;;5020619;28;20239;-81
2023/01/11 03:31:33;;;;;;;1.73;1.27;;;7.80;99.90;;;;;;5022139;28;20204;-80
2023/01/11 03:34:08;;;;;;;2.17;1.77;;;7.80;99.90;;;;;;5022763;28;20212;-80
2023/01/11 03:36:39;;;;;;;3.10;2.00;;;7.80;99.90;;;;;;5021895;28;20194;-81
2023/01/11 03:39:13;;;;;;;1.40;1.00;;;7.80;99.90;;;;;;5021434;28;20268;-81
2023/01/11 03:41:45;;;;;;;1.33;1.00;;;7.90;99.90;;;;;;5010181;28;20201;-80
2023/01/11 03:44:15;;;;;;;1.70;1.23;;;7.90;99.90;;;;;;5004407;28;20279;-81
2023/01/11 03:46:48;;;;;;;4.77;1.40;;;7.90;99.90;;;;;;5004209;28;20232;-80
2023/01/11 03:49:18;;;;;;;1.97;1.40;;;7.90;99.90;;;;;;5008551;28;20306;-80
2023/01/11 03:51:47;;;;;;;3.43;1.20;;;8.00;99.90;;;;;;5022502;28;20258;-81
2023/01/11 03:54:19;;;;;;;2.67;1.43;;;8.10;99.90;;;;;;5020830;28;20294;-80
2023/01/11 03:56:51;;;;;;;2.40;1.30;;;8.00;99.90;;;;;;5022076;28;20215;-81
2023/01/11 03:59:19;;;;;;;2.47;1.40;;;8.10;99.90;;;;;;5021930;28;20268;-80
2023/01/11 04:01:47;;;;;;;4.40;1.43;;;8.00;99.90;;;;;;5016347;28;20283;-81
2023/01/11 04:04:14;;;;;;;1.33;1.10;;;8.00;99.90;;;;;;5020923;28;20626;-81
2023/01/11 04:06:41;;;;;;;2.83;1.27;;;8.00;99.90;;;;;;5020718;28;20240;-80
2023/01/11 04:09:08;;;;;;;1.60;1.40;;;8.10;99.90;;;;;;5019749;28;20232;-80
2023/01/11 04:11:34;;;;;;;3.07;1.30;;;8.10;99.90;;;;;;5020480;28;20268;-81
2023/01/11 04:14:01;;;;;;;3.60;1.57;;;8.10;99.90;;;;;;5008100;28;20219;-81
2023/01/11 04:16:28;;;;;;;4.17;2.20;;;8.10;99.90;;;;;;5016744;28;20231;-79
2023/01/11 04:18:56;;;;;;;3.40;1.80;;;8.10;99.90;;;;;;5018178;28;20212;-79
2023/01/11 04:21:23;;;;;;;4.53;1.60;;;8.00;99.90;;;;;;5017743;28;20211;-80
2023/01/11 04:23:50;;;;;;;3.67;1.40;;;8.10;99.90;;;;;;5016915;28;20228;-80
2023/01/11 04:26:17;;;;;;;8.60;3.50;;;8.10;99.90;;;;;;5018529;28;20208;-80
2023/01/11 04:28:44;;;;;;;2.47;1.60;;;8.10;99.90;;;;;;5019989;28;20224;-80
2023/01/11 04:31:11;;;;;;;2.77;1.53;;;8.20;99.90;;;;;;5019587;28;20218;-80
2023/01/11 04:33:38;;;;;;;2.60;1.40;;;8.20;99.90;;;;;;5015873;28;20579;-84
2023/01/11 04:36:08;;;;;;;3.23;1.53;;;8.20;99.90;;;;;;5024636;28;20212;-83
2023/01/11 04:38:35;;;;;;;3.90;2.10;;;8.20;99.90;;;;;;5034216;28;20200;-82
2023/01/11 04:43:47;;;;;;;1.67;1.57;;;8.30;99.90;;;;;;5035918;28;20222;-83
2023/01/11 04:46:14;;;;;;;4.20;1.83;;;8.30;99.90;;;;;;5035926;28;20204;-84
2023/01/11 04:48:41;;;;;;;2.73;1.60;;;8.40;99.90;;;;;;5034973;28;20223;-83
2023/01/11 04:51:10;;;;;;;4.97;1.60;;;8.30;99.90;;;;;;5035497;28;20203;-83
2023/01/11 04:53:37;;;;;;;2.67;1.40;;;8.30;99.90;;;;;;5035889;28;20227;-83
2023/01/11 04:56:05;;;;;;;2.93;1.53;;;8.30;99.90;;;;;;5036104;28;20218;-83
2023/01/11 04:58:33;;;;;;;3.13;1.40;;;8.30;99.90;;;;;;5035386;28;20207;-83
2023/01/11 05:01:01;;;;;;;5.27;1.73;;;8.30;99.90;;;;;;5036945;28;20200;-82
2023/01/11 05:03:27;;;;;;;1.80;1.37;;;8.30;99.90;;;;;;5039250;28;20231;-82
2023/01/11 05:05:58;;;;;;;4.57;1.70;;;8.30;99.90;;;;;;5038879;28;20204;-83
2023/01/11 05:08:28;;;;;;;3.03;1.50;;;8.30;99.90;;;;;;5039679;28;20200;-84
2023/01/11 05:10:55;;;;;;;2.77;1.10;;;8.30;99.90;;;;;;5038830;28;20204;-83
2023/01/11 05:13:40;;;;;;;2.53;1.53;;;8.30;99.90;;;;;;5038585;28;20231;-85
2023/01/11 05:16:07;;;;;;;2.47;1.70;;;8.30;99.90;;;;;;5038957;28;20239;-84
2023/01/11 05:18:34;;;;;;;2.50;1.30;;;8.30;99.90;;;;;;5038709;28;20572;-84
2023/01/11 05:21:01;;;;;;;1.73;1.37;;;8.30;99.90;;;;;;5039134;28;20212;-83
2023/01/11 05:23:30;;;;;;;3.20;1.40;;;8.30;99.90;;;;;;5039076;28;20231;-83
2023/01/11 05:25:56;;;;;;;1.77;1.30;;;8.30;99.90;;;;;;5038667;28;20225;-84
2023/01/11 05:28:23;;;;;;;4.70;1.90;;;8.40;99.90;;;;;;5039284;28;20195;-83
2023/01/11 05:30:52;;;;;;;2.03;1.60;;;8.30;99.90;;;;;;5038348;28;20235;-83
2023/01/11 05:33:19;;;;;;;3.43;1.30;;;8.30;99.90;;;;;;5038892;28;20223;-82
2023/01/11 05:35:45;;;;;;;2.50;1.50;;;8.30;99.90;;;;;;5038081;28;20236;-83
2023/01/11 05:38:12;;;;;;;2.87;1.33;;;8.30;99.90;;;;;;5038676;28;20200;-83
2023/01/11 05:40:40;;;;;;;3.03;1.57;;;8.20;99.90;;;;;;5038728;28;20199;-82
2023/01/11 05:43:07;;;;;;;1.10;1.00;;;8.20;99.90;;;;;;5038437;28;20227;-82
2023/01/11 05:45:35;;;;;;;3.03;1.23;;;8.20;99.90;;;;;;5038447;28;20206;-83
2023/01/11 05:48:02;;;;;;;1.90;1.33;;;8.20;99.90;;;;;;5038318;28;20771;-83
2023/01/11 05:50:30;;;;;;;2.00;1.30;;;8.20;99.90;;;;;;5038424;28;20230;-83
2023/01/11 05:52:57;;;;;;;2.63;1.07;;;8.20;99.90;;;;;;5039151;28;20241;-83
2023/01/11 05:55:23;;;;;;;3.83;1.20;;;8.20;99.90;;;;;;5038476;28;20583;-83
2023/01/11 05:57:52;;;;;;;1.87;1.27;;;8.20;99.90;;;;;;5038624;28;20207;-84
2023/01/11 06:00:19;;;;;;;1.93;1.20;;;8.20;99.90;;;;;;5038447;28;20214;-84
2023/01/11 06:02:46;;;;;;;2.47;1.23;;;8.20;99.90;;;;;;5038159;28;20266;-83
2023/01/11 06:05:13;;;;;;;2.43;1.00;;;8.30;99.90;;;;;;5038330;28;20203;-86
2023/01/11 06:07:39;;;;;;;1.87;1.00;;;8.30;99.90;;;;;;5038573;28;20209;-84
2023/01/11 06:10:07;;;;;;;2.53;1.00;;;8.20;99.90;;;;;;5038292;28;20235;-83
2023/01/11 06:12:34;;;;;;;1.13;1.03;;;8.20;99.90;;;;;;5036577;28;20722;-82
2023/01/11 06:15:03;;;;;;;3.73;1.17;;;8.20;99.90;;;;;;5038221;28;20206;-83
2023/01/11 06:17:30;;;;;;;0.70;0.70;;;8.30;99.90;;;;;;5037535;28;20234;-84
2023/01/11 06:19:57;;;;;;;1.13;1.13;;;8.30;99.90;;;;;;5018662;28;20204;-83
2023/01/11 06:22:23;;;;;;;0.97;0.90;;;8.30;99.90;;;;;;5012796;28;20230;-85
2023/01/11 06:24:50;;;;;;;1.27;0.87;;;8.30;99.90;;;;;;5018263;28;20199;-83
2023/01/11 06:27:17;;;;;;;2.03;0.80;;;8.30;99.90;;;;;;5018366;28;20649;-83
2023/01/11 06:29:44;;;;;;;4.43;1.10;;;8.30;99.90;;;;;;5012341;28;20248;-85
2023/01/11 06:32:12;;;;;;;1.70;1.30;;;8.30;99.90;;;;;;5017277;28;20307;-83
2023/01/11 06:34:39;;;;;;;1.40;1.00;;;8.20;99.90;;;;;;5019305;28;20215;-83
2023/01/11 06:37:06;;;;;;;0.97;0.80;;;8.10;99.90;;;;;;5018147;28;20550;-82
2023/01/11 06:39:32;;;;;;;1.10;1.10;;;8.10;99.90;;;;;;5019663;28;20212;-86
2023/01/11 06:41:59;;;;;;;2.93;1.07;;;8.10;99.90;;;;;;5018667;28;20220;-83
2023/01/11 06:44:26;;;;;;;1.73;0.80;;;8.10;99.90;;;;;;5019023;28;20287;-83
2023/01/11 06:46:53;;;;;;;3.87;1.20;;;8.00;99.90;;;;;;5019692;28;20597;-86
2023/01/11 06:49:21;;;;;;;0.83;0.73;;;8.10;99.90;;;;;;5017702;28;20234;-83
2023/01/11 06:51:48;;;;;;;1.97;0.80;;;8.10;99.90;;;;;;5017941;28;20224;-83
2023/01/11 06:54:20;;;;;;;2.23;0.80;;;8.10;99.90;;;;;;5016761;28;20691;-83
2023/01/11 06:56:47;;;;;;;2.73;0.80;;;8.10;99.90;;;;;;4998193;28;20550;-83
2023/01/11 06:59:14;;;;;;;0.70;0.70;;;8.10;99.90;;;;;;4998498;28;20666;-85
2023/01/11 07:01:41;;;;;;;1.10;1.00;;;8.10;99.90;;;;;;4999448;28;20206;-83
2023/01/11 07:04:07;;;;;;;2.30;0.80;;;8.10;99.90;;;;;;5010042;28;20211;-83
2023/01/11 07:06:37;;;;;;;1.10;0.67;;;8.10;99.90;;;;;;5018097;28;20238;-84
2023/01/11 07:09:04;;;;;;;1.17;0.80;;;8.10;99.90;;;;;;5010148;28;20197;-83
2023/01/11 07:11:33;;;;;;;2.10;0.80;;;8.20;99.90;;;;;;4999260;28;20207;-83
2023/01/11 07:14:00;;;;;;;0.90;0.83;;;8.10;99.90;;;;;;4999960;28;20212;-83
2023/01/11 07:16:27;;;;;;;0.97;0.70;;;8.20;99.90;;;;;;4999603;28;20228;-84
2023/01/11 07:18:53;;;;;;;0.60;0.60;;;8.10;99.90;;;;;;4999154;28;20219;-84
2023/01/11 07:21:20;;;;;;;2.30;0.80;;;8.20;99.90;;;;;;5016051;28;20200;-84
2023/01/11 07:23:48;;;;;;;0.80;0.80;;;8.20;99.90;;;;;;5016809;28;20299;-84
2023/01/11 07:26:16;;;;;;;1.73;0.87;;;8.20;99.90;;;;;;5019263;28;20228;-85
2023/01/11 07:28:42;;;;;;;1.40;0.80;;;8.30;99.90;;;;;;5018726;28;20200;-84
2023/01/11 07:31:09;;;;;;;0.80;0.60;;;8.40;99.90;;;;;;5018940;28;20224;-84
2023/01/11 07:33:36;;;;;;;1.50;0.60;;;8.30;99.90;;;;;;5018428;28;20634;-84
2023/01/11 07:36:05;;;;;;;0.80;0.80;;;8.30;99.90;;;;;;5017890;28;20208;-84
2023/01/11 07:38:31;;;;;;;2.23;0.50;;;8.30;99.90;;;;;;5018436;28;20223;-83
2023/01/11 07:43:10;;;;;;;0.40;0.40;;;8.30;99.90;;;;;;5017778;28;20196;-85
2023/01/11 07:43:45;;;;;;;0.60;0.50;;;8.30;99.90;;;;;;5019753;28;20224;-84
2023/01/11 07:46:12;;;;;;;0.80;0.70;;;8.40;99.90;;;;;;5018544;28;20204;-81
2023/01/11 07:48:39;;;;;;;1.63;1.00;;;8.30;99.90;;;;;;5018511;28;20219;-83
2023/01/11 07:51:06;;;;;;;2.10;0.90;;;8.40;99.90;;;;;;5020309;28;20231;-83
2023/01/11 07:53:33;;;;;;;0.83;0.70;;;8.40;99.90;;;;;;5018060;28;20311;-84
2023/01/11 07:56:01;;;;;;;0.40;0.40;;;8.40;99.90;;;;;;5018582;28;20567;-83
2023/01/11 07:58:28;;;;;;;0.50;0.50;;;8.40;99.90;;;;;;5017666;28;20204;-83
2023/01/11 08:00:54;;;;;;;2.23;0.77;;;8.40;99.90;;;;;;5019094;28;20206;-83
2023/01/11 08:03:21;;;;;;;0.80;0.63;;;8.40;99.90;;;;;;5019590;28;20232;-86
2023/01/11 08:05:50;;;;;;;0.43;0.43;;;8.40;99.90;;;;;;5019084;28;20210;-83
2023/01/11 08:08:17;;;;;;;0.93;0.60;;;8.40;99.90;;;;;;5018633;28;20208;-83
2023/01/11 08:10:44;;;;;;;1.67;0.80;;;8.50;99.90;;;;;;5017314;28;20228;-83
2023/01/11 08:15:57;;;;;;;1.00;0.50;;;8.50;99.90;;;;;;5019175;28;20207;-82
2023/01/11 08:18:24;;;;;;;0.80;0.60;;;8.50;99.90;;;;;;5019047;28;20207;-85
2023/01/11 08:20:52;;;;;;;1.37;0.93;;;8.50;99.90;;;;;;5018753;28;20204;-83
2023/01/11 08:23:19;;;;;;;3.07;0.70;;;8.60;99.90;;;;;;5017035;28;20693;-83
2023/01/11 08:25:46;;;;;;;0.90;0.70;;;8.60;99.90;;;;;;5020696;28;20204;-82
2023/01/11 08:28:14;;;;;;;1.33;0.53;;;8.60;99.90;;;;;;5021489;28;20204;-85
2023/01/11 08:30:41;;;;;;;0.67;0.40;;;8.60;99.90;;;;;;5017826;28;20598;-84
2023/01/11 08:33:09;;;;;;;2.20;0.50;;;8.60;99.90;;;;;;5016753;28;20639;-84
2023/01/11 08:35:38;;;;;;;0.53;0.40;;;8.60;99.90;;;;;;5016921;28;20204;-84
2023/01/11 08:38:05;;;;;;;0.60;0.50;;;8.60;99.90;;;;;;5021105;28;20197;-84
2023/01/11 08:40:32;;;;;;;1.20;0.67;;;8.70;99.90;;;;;;5022021;28;20208;-83
2023/01/11 08:42:59;;;;;;;3.23;0.70;;;8.70;99.90;;;;;;5022096;28;20283;-83
2023/01/11 08:45:27;;;;;;;1.27;0.50;;;8.70;99.90;;;;;;5022793;28;20200;-84
2023/01/11 08:47:54;;;;;;;0.83;0.70;;;8.70;99.90;;;;;;5021929;28;20323;-83
2023/01/11 08:50:21;;;;;;;0.50;0.30;;;8.70;99.90;;;;;;5021947;28;20224;-84
2023/01/11 08:52:49;;;;;;;2.37;0.80;;;8.80;99.90;;;;;;5022519;28;20232;-82
2023/01/11 08:55:16;;;;;;;1.10;0.40;;;8.80;99.90;;;;;;5021343;28;20232;-85
2023/01/11 08:57:43;;;;;;;0.93;0.50;;;8.80;99.90;;;;;;5020705;28;20239;-84
2023/01/11 09:00:11;;;;;;;1.40;0.40;;;8.90;99.90;;;;;;5021080;28;20208;-83
2023/01/11 09:02:40;;;;;;;1.17;0.47;;;8.90;99.90;;;;;;5021122;28;20307;-86
2023/01/11 09:05:07;;;;;;;0.40;0.40;;;9.00;99.90;;;;;;5021571;28;20746;-84
2023/01/11 09:07:34;;;;;;;0.30;0.30;;;9.00;99.90;;;;;;5021610;28;20214;-82
2023/01/11 09:10:01;;;;;;;0.50;0.40;;;9.00;99.90;;;;;;5020762;28;20292;-83
2023/01/11 09:12:27;;;;;;;0.43;0.43;;;9.00;99.90;;;;;;5021246;28;20696;-84
2023/01/11 09:14:54;;;;;;;1.03;0.40;;;9.00;99.90;;;;;;5019742;28;20295;-83
2023/01/11 09:17:21;;;;;;;0.40;0.40;;;9.00;99.90;;;;;;5034053;28;20195;-83
2023/01/11 09:19:49;;;;;;;0.30;0.30;;;9.00;99.90;;;;;;5041156;28;20210;-84
2023/01/11 09:22:17;;;;;;;0.40;0.30;;;9.00;99.90;;;;;;5026473;28;20228;-84
2023/01/11 09:24:44;;;;;;;0.67;0.40;;;9.10;99.90;;;;;;5021627;28;20267;-84
2023/01/11 09:27:11;;;;;;;0.23;0.23;;;9.10;99.90;;;;;;5020056;28;20200;-82
2023/01/11 09:29:38;;;;;;;0.47;0.20;;;9.20;99.90;;;;;;5020823;28;20605;-84
2023/01/11 09:32:05;;;;;;;0.30;0.30;;;9.10;99.90;;;;;;5020542;28;20236;-83
2023/01/11 09:34:32;;;;;;;0.53;0.30;;;9.20;99.90;;;;;;5008628;28;20230;-84
2023/01/11 09:37:02;;;;;;;1.27;0.30;;;9.10;99.90;;;;;;5001874;28;20272;-84
2023/01/11 09:39:29;;;;;;;0.90;0.67;;;9.10;99.90;;;;;;5002336;28;20228;-83
2023/01/11 09:42:31;;;;;;;1.03;0.30;;;9.10;99.90;;;;;;5002647;28;20231;-83
2023/01/11 09:45:05;;;;;;;0.30;0.30;;;9.00;99.90;;;;;;5000742;28;20561;-83
2023/01/11 09:47:39;;;;;;;0.77;0.47;;;9.00;99.90;;;;;;5001643;28;20225;-83
2023/01/11 09:50:13;;;;;;;0.40;0.40;;;9.00;99.90;;;;;;5018343;28;20275;-83
2023/01/11 09:52:44;;;;;;;0.73;0.40;;;9.00;99.90;;;;;;5022110;28;20239;-84
2023/01/11 09:55:18;;;;;;;2.37;0.60;;;9.00;99.90;;;;;;5020128;28;20223;-85
2023/01/11 09:57:58;;;;;;;1.07;0.30;;;9.00;99.90;;;;;;5022128;28;20208;-83
2023/01/11 10:00:32;;;;;;;0.50;0.30;;;9.00;99.90;;;;;;5021637;28;20208;-84
2023/01/11 10:03:30;;;;;;;0.70;0.47;;;9.00;99.90;;;;;;5021299;28;20234;-84
2023/01/11 10:06:09;;;;;;;0.60;0.37;;;9.00;99.90;;;;;;5021646;28;20240;-83
2023/01/11 10:08:54;;;;;;;0.57;0.20;;;8.90;99.90;;;;;;5020506;28;20215;-84
2023/01/11 10:11:32;;;;;;;0.57;0.40;;;8.90;99.90;;;;;;5022272;28;20226;-84
2023/01/11 10:14:07;;;;;;;1.33;0.50;;;8.90;99.90;;;;;;5020729;28;20552;-84
2023/01/11 10:16:43;;;;;;;0.20;0.20;;;9.00;99.90;;;;;;5001298;28;20216;-84
2023/01/11 10:19:17;;;;;;;0.77;0.37;;;9.00;99.90;;;;;;5001317;28;20248;-83
2023/01/11 10:21:48;;;;;;;0.57;0.30;;;9.00;99.90;;;;;;5001680;28;20780;-84
2023/01/11 10:24:25;;;;;;;0.40;0.13;;;9.00;99.90;;;;;;5002065;28;20681;-84
2023/01/11 10:26:57;;;;;;;0.50;0.20;;;9.10;99.90;;;;;;5000827;28;20261;-83
2023/01/11 10:29:44;;;;;;;0.33;0.30;;;9.10;99.90;;;;;;5001861;28;20221;-83
2023/01/11 10:32:44;;;;;;;2.23;0.43;;;9.10;99.90;;;;;;5002215;28;20233;-83
2023/01/11 10:35:40;;;;;;;0.67;0.30;;;9.10;99.90;;;;;;5021276;28;20208;-84
2023/01/11 10:38:29;;;;;;;1.43;0.23;;;9.10;99.90;;;;;;5022039;28;20277;-83
2023/01/11 10:41:07;;;;;;;0.50;0.50;;;9.10;99.90;;;;;;5021963;28;20220;-85
2023/01/11 10:43:39;;;;;;;1.23;0.43;;;9.20;99.90;;;;;;5022096;28;20846;-84
2023/01/11 10:46:10;;;;;;;0.30;0.30;;;9.20;99.90;;;;;;5022174;28;20215;-83
2023/01/11 10:48:39;;;;;;;0.20;0.20;;;9.20;99.90;;;;;;5023431;28;20218;-84
2023/01/11 10:51:18;;;;;;;0.40;0.40;;;9.20;99.90;;;;;;5021730;28;20228;-83
2023/01/11 10:53:58;;;;;;;0.63;0.30;;;9.30;99.90;;;;;;5022176;28;20239;-84
2023/01/11 10:56:39;;;;;;;1.57;0.40;;;9.30;99.90;;;;;;5022792;28;20275;-83
2023/01/11 10:59:21;;;;;;;0.27;0.20;;;9.30;99.90;;;;;;5020375;28;20627;-83
2023/01/11 11:01:56;;;;;;;2.13;0.30;;;9.30;99.90;;;;;;5021090;28;20252;-84
2023/01/11 11:04:35;;;;;;;0.67;0.60;;;9.30;99.90;;;;;;5022035;28;20184;-86
2023/01/11 11:07:10;;;;;;;3.43;0.53;;;9.30;99.90;;;;;;5022994;28;20192;-84
2023/01/11 11:09:45;;;;;;;0.87;0.83;;;9.40;99.90;;;;;;5022175;28;20220;-82
2023/01/11 11:12:19;;;;;;;1.33;0.40;;;9.40;99.90;;;;;;5021849;28;20243;-84
2023/01/11 11:14:51;;;;;;;1.40;0.50;;;9.40;99.90;;;;;;5021126;28;20258;-85
2023/01/11 11:17:24;;;;;;;0.30;0.30;;;9.40;99.90;;;;;;5022148;28;20181;-84
2023/01/11 11:19:51;;;;;;;0.50;0.40;;;9.40;99.90;;;;;;5021472;28;20204;-83
2023/01/11 11:22:19;;;;;;;1.70;0.50;;;9.40;99.90;;;;;;5021495;28;20224;-84
2023/01/11 11:24:49;;;;;;;0.50;0.50;;;9.40;99.90;;;;;;5020649;28;20201;-84
2023/01/11 11:27:22;;;;;;;0.30;0.30;;;9.40;99.90;;;;;;5022048;28;20204;-84
2023/01/11 11:29:52;;;;;;;0.50;0.50;;;9.40;99.90;;;;;;5022733;28;20248;-84
2023/01/11 11:32:24;;;;;;;0.70;0.53;;;9.50;99.90;;;;;;5021001;28;20293;-84
2023/01/11 11:34:52;;;;;;;1.60;0.53;;;9.50;99.90;;;;;;5020712;28;20216;-84
2023/01/11 11:37:25;;;;;;;0.53;0.53;;;9.50;99.90;;;;;;5021692;28;20686;-84
2023/01/11 11:39:53;;;;;;;0.50;0.50;;;9.50;99.90;;;;;;5021430;28;20268;-84
2023/01/11 11:42:22;;;;;;;2.57;0.87;;;9.50;99.90;;;;;;5020155;28;20855;-83
2023/01/11 11:45:16;;;;;;;2.67;1.30;;;9.50;99.90;;;;;;5021668;28;20291;-84
2023/01/11 11:47:43;;;;;;;0.63;0.63;;;9.50;99.90;;;;;;5020834;28;20219;-84
2023/01/11 11:50:25;;;;;;;3.23;0.70;;;9.50;99.90;;;;;;5021319;28;20196;-84
2023/01/11 11:52:59;;;;;;;1.33;1.23;;;9.40;99.90;;;;;;5020316;28;20216;-84
2023/01/11 11:55:29;;;;;;;1.10;0.60;;;9.40;99.90;;;;;;5021230;28;20200;-84
2023/01/11 11:58:00;;;;;;;1.03;0.60;;;9.40;99.90;;;;;;5023439;28;20227;-85
2023/01/11 12:00:29;;;;;;;0.93;0.70;;;9.40;99.90;;;;;;5021776;28;20266;-83
2023/01/11 12:03:00;;;;;;;1.47;0.80;;;9.40;99.90;;;;;;5021304;28;20644;-85
2023/01/11 12:05:27;;;;;;;0.90;0.80;;;9.40;99.90;;;;;;5022147;28;20208;-84
2023/01/11 12:07:55;;;;;;;0.70;0.70;;;9.40;99.90;;;;;;5013025;28;20227;-87
2023/01/11 12:10:24;;;;;;;1.60;1.10;;;9.40;99.90;;;;;;4996187;28;20292;-83
2023/01/11 12:12:53;;;;;;;1.17;1.07;;;9.30;99.90;;;;;;5000236;28;20229;-83
2023/01/11 12:15:24;;;;;;;1.13;0.90;;;9.40;99.90;;;;;;5001925;28;20201;-85
2023/01/11 12:17:51;;;;;;;1.57;1.00;;;9.40;99.90;;;;;;5006084;28;20189;-87
2023/01/11 12:20:30;;;;;;;1.57;1.07;;;9.40;99.90;;;;;;5011824;28;20239;-84
2023/01/11 12:23:16;;;;;;;2.60;1.20;;;9.40;99.90;;;;;;5020667;28;20231;-85
2023/01/11 12:26:03;;;;;;;1.80;1.10;;;9.40;99.90;;;;;;5003281;28;20209;-84
2023/01/11 12:28:48;;;;;;;1.77;1.50;;;9.40;99.90;;;;;;5016905;28;20208;-86
2023/01/11 12:31:25;;;;;;;1.13;0.90;;;9.40;99.90;;;;;;5022527;28;20220;-84
2023/01/11 12:33:59;;;;;;;1.40;1.30;;;9.40;99.90;;;;;;5010961;28;20216;-86
2023/01/11 12:36:33;;;;;;;1.90;1.20;;;9.40;99.90;;;;;;5017919;28;20269;-84
2023/01/11 12:39:06;;;;;;;1.90;1.17;;;9.50;99.90;;;;;;5020325;28;20282;-86
2023/01/11 12:42:03;;;;;;;1.53;1.43;;;9.50;99.90;;;;;;5016297;28;20216;-85
2023/01/11 12:44:44;;;;;;;1.53;1.43;;;9.50;99.90;;;;;;5011498;28;20204;-84
2023/01/11 12:47:33;;;;;;;2.40;2.03;;;9.50;99.90;;;;;;5003856;28;20227;-85
2023/01/11 12:50:06;;;;;;;3.17;2.87;;;9.50;99.90;;;;;;5010239;28;20232;-84
2023/01/11 12:52:48;;;;;;;3.10;2.27;;;9.50;99.90;;;;;;5022679;28;20247;-87
2023/01/11 12:55:43;;;;;;;3.23;2.83;;;9.50;99.90;;;;;;5019364;28;20212;-84
2023/01/11 12:58:15;;;;;;;3.10;2.80;;;9.40;99.90;;;;;;5007298;28;20204;-85
2023/01/11 13:01:26;;;;;;;2.20;2.00;;;9.50;99.90;;;;;;5006234;28;20557;-85
2023/01/11 13:04:26;;;;;;;2.47;1.73;;;9.50;99.90;;;;;;4980260;28;20299;-84
2023/01/11 13:07:01;;;;;;;1.53;1.43;;;9.50;99.90;;;;;;5011555;28;20207;-83
2023/01/11 13:09:44;;;;;;;1.87;1.67;;;9.60;99.90;;;;;;5020791;28;20207;-84
2023/01/11 13:12:17;;;;;;;2.17;1.97;;;9.60;99.90;;;;;;5018809;28;20228;-85
2023/01/11 13:15:02;;;;;;;5.17;2.53;;;9.60;99.90;;;;;;5016863;28;20205;-83
2023/01/11 13:17:36;;;;;;;3.20;2.93;;;9.60;99.90;;;;;;4999568;28;20268;-86
2023/01/11 13:20:29;;;;;;;3.07;2.47;;;9.70;99.90;;;;;;5003045;28;20272;-85
2023/01/11 13:23:02;;;;;;;3.00;2.50;;;9.70;99.90;;;;;;5004096;28;20235;-83
2023/01/11 13:25:34;;;;;;;2.53;2.33;;;9.70;99.90;;;;;;5025838;28;20284;-83
2023/01/11 13:28:08;;;;;;;3.23;2.70;;;9.70;99.90;;;;;;5022194;28;20212;-83
2023/01/11 13:30:35;;;;;;;3.57;2.67;;;9.70;99.90;;;;;;5016912;28;20212;-85
2023/01/11 13:33:07;;;;;;;23.47;12.20;;;9.80;99.90;;;;;;5025445;28;20223;-83
2023/01/11 13:35:40;;;;;;;18.13;9.87;;;9.70;99.90;;;;;;5006978;28;20215;-86
2023/01/11 13:38:24;;;;;;;6.23;3.43;;;9.70;99.90;;;;;;5028543;28;20204;-84
2023/01/11 13:40:54;;;;;;;4.93;3.60;;;9.70;99.90;;;;;;5000182;28;20518;-84